Time;durP1;ratioP1;P1;durP2;ratioP2;P2;SDS_P1;SDS_P2;PMS_P1;PMS_P2;Temp;Humidity;BMP_temperature;BMP_pressure;BME280_temperature;BME280_humidity;BME280_pressure;Samples;Min_cycle;Max_cycle;Signal;HPM_P1;HPM_P2
2024/02/10 00:00:19;;;;;;;;;;;19.00;69.00;;;;;;5019316;28;1442;-68
2024/02/10 00:02:48;;;;;;;;;;;19.10;69.10;;;;;;5018820;28;1479;-68
2024/02/10 00:05:14;;;;;;;;;;;19.10;69.00;;;;;;5020626;28;1382;-69
2024/02/10 00:07:40;;;;;;;;;;;19.10;68.80;;;;;;5023898;28;1582;-69
2024/02/10 00:10:06;;;;;;;;;;;19.10;68.80;;;;;;5020929;28;1646;-67
2024/02/10 00:12:31;;;;;;;;;;;19.10;68.80;;;;;;5022279;28;1580;-68
2024/02/10 00:14:57;;;;;;;;;;;19.10;68.80;;;;;;5019255;28;1267;-69
2024/02/10 00:17:26;;;;;;;;;;;19.10;68.80;;;;;;5022642;28;1919;-68
2024/02/10 00:19:55;;;;;;;;;;;19.10;68.70;;;;;;5023702;28;1256;-68
2024/02/10 00:22:24;;;;;;;;;;;19.10;68.70;;;;;;5024504;28;1260;-68
2024/02/10 00:24:49;;;;;;;;;;;19.10;68.80;;;;;;5021400;28;1264;-68
2024/02/10 00:27:16;;;;;;;;;;;19.20;69.00;;;;;;5023273;28;1251;-70
2024/02/10 00:29:45;;;;;;;;;;;19.10;69.10;;;;;;5022052;28;1278;-68
2024/02/10 00:32:11;;;;;;;;;;;19.10;69.10;;;;;;5020651;28;1524;-67
2024/02/10 00:34:39;;;;;;;;;;;19.10;69.50;;;;;;5023619;28;1658;-69
2024/02/10 00:37:08;;;;;;;;;;;19.00;69.40;;;;;;5029096;28;1918;-67
2024/02/10 00:39:33;;;;;;;;;;;19.00;69.60;;;;;;5019718;28;1612;-70
2024/02/10 00:41:59;;;;;;;;;;;19.00;69.50;;;;;;5019725;28;1666;-67
2024/02/10 00:44:28;;;;;;;;;;;18.90;69.50;;;;;;5028225;28;1292;-69
2024/02/10 00:47:00;;;;;;;;;;;18.90;69.50;;;;;;5021305;28;1613;-69
2024/02/10 00:49:26;;;;;;;;;;;18.90;69.50;;;;;;5020402;28;1566;-67
2024/02/10 00:51:54;;;;;;;;;;;19.00;69.60;;;;;;5022216;28;1253;-68
2024/02/10 00:54:27;;;;;;;;;;;18.90;69.50;;;;;;5021450;28;1668;-69
2024/02/10 00:56:53;;;;;;;;;;;18.90;69.50;;;;;;5017959;28;1950;-69
2024/02/10 00:59:18;;;;;;;;;;;18.90;69.80;;;;;;5020930;28;1325;-69
2024/02/10 01:01:44;;;;;;;;;;;18.90;69.70;;;;;;5021163;28;1493;-68
2024/02/10 01:04:11;;;;;;;;;;;18.90;69.80;;;;;;5025179;28;1602;-68
2024/02/10 01:06:39;;;;;;;;;;;18.90;69.90;;;;;;5023675;28;1363;-68
2024/02/10 01:09:07;;;;;;;;;;;18.90;69.70;;;;;;5021864;28;1315;-68
2024/02/10 01:11:33;;;;;;;;;;;18.80;69.70;;;;;;5022922;28;1275;-69
2024/02/10 01:13:59;;;;;;;;;;;18.90;69.60;;;;;;5019119;28;1376;-68
2024/02/10 01:16:25;;;;;;;;;;;18.90;69.50;;;;;;5028360;28;1902;-69
2024/02/10 01:18:51;;;;;;;;;;;18.90;69.50;;;;;;5019778;28;1589;-68
2024/02/10 01:21:17;;;;;;;;;;;18.90;69.30;;;;;;5019762;28;1448;-68
2024/02/10 01:23:43;;;;;;;;;;;18.90;69.20;;;;;;5020286;28;1609;-70
2024/02/10 01:26:09;;;;;;;;;;;19.00;69.20;;;;;;5021173;28;1593;-68
2024/02/10 01:28:35;;;;;;;;;;;19.00;69.10;;;;;;5019159;28;1487;-69
2024/02/10 01:31:06;;;;;;;;;;;19.00;69.10;;;;;;5022301;28;1602;-69
2024/02/10 01:33:31;;;;;;;;;;;19.00;69.00;;;;;;5023253;28;1409;-69
2024/02/10 01:35:59;;;;;;;;;;;19.00;69.00;;;;;;5019829;28;1493;-68
2024/02/10 01:38:25;;;;;;;;;;;19.00;69.00;;;;;;5021640;28;1902;-69
2024/02/10 01:40:51;;;;;;;;;;;19.00;69.20;;;;;;5018549;28;1285;-69
2024/02/10 01:43:16;;;;;;;;;;;19.00;70.00;;;;;;5016610;28;1281;-68
2024/02/10 01:45:42;;;;;;;;;;;18.90;69.40;;;;;;5018208;28;1550;-68
2024/02/10 01:48:08;;;;;;;;;;;18.90;69.40;;;;;;5021096;28;1291;-69
2024/02/10 01:50:36;;;;;;;;;;;18.90;69.60;;;;;;5019434;28;1346;-68
2024/02/10 01:53:02;;;;;;;;;;;18.90;70.00;;;;;;5017830;28;1457;-68
2024/02/10 01:55:27;;;;;;;;;;;18.90;70.10;;;;;;5020228;28;1587;-68
2024/02/10 01:57:54;;;;;;;;;;;18.90;70.50;;;;;;5018550;28;1905;-68
2024/02/10 02:00:24;;;;;;;;;;;18.90;71.00;;;;;;5015392;28;1466;-70
2024/02/10 02:02:55;;;;;;;;;;;18.80;70.80;;;;;;5020598;28;1178;-68
2024/02/10 02:05:21;;;;;;;;;;;18.90;71.10;;;;;;5017393;28;1458;-68
2024/02/10 02:07:48;;;;;;;;;;;18.80;71.40;;;;;;5003632;28;1303;-69
2024/02/10 02:10:13;;;;;;;;;;;18.80;71.40;;;;;;5016792;28;1246;-69
2024/02/10 02:12:48;;;;;;;;;;;18.80;71.50;;;;;;5019821;28;1360;-68
2024/02/10 02:15:17;;;;;;;;;;;18.80;71.70;;;;;;5017835;28;911;-69
2024/02/10 02:17:42;;;;;;;;;;;18.80;71.60;;;;;;5021567;28;1902;-69
2024/02/10 02:20:09;;;;;;;;;;;18.80;72.00;;;;;;5016376;28;1371;-68
2024/02/10 02:22:34;;;;;;;;;;;18.80;71.80;;;;;;5019494;28;1689;-70
2024/02/10 02:24:59;;;;;;;;;;;18.80;71.80;;;;;;5016463;28;1700;-68
2024/02/10 02:27:25;;;;;;;;;;;18.80;72.30;;;;;;5020665;28;1528;-69
2024/02/10 02:29:50;;;;;;;;;;;18.80;71.90;;;;;;5019029;28;1545;-68
2024/02/10 02:32:16;;;;;;;;;;;18.80;71.80;;;;;;5019853;28;1587;-68
2024/02/10 02:34:42;;;;;;;;;;;18.80;71.70;;;;;;5024510;28;1387;-68
2024/02/10 02:37:08;;;;;;;;;;;18.90;71.60;;;;;;5018919;28;1969;-67
2024/02/10 02:39:33;;;;;;;;;;;18.90;71.50;;;;;;5017983;28;1387;-68
2024/02/10 02:42:02;;;;;;;;;;;18.90;71.70;;;;;;5018628;28;1381;-69
2024/02/10 02:44:27;;;;;;;;;;;18.80;71.70;;;;;;5015571;28;1468;-68
2024/02/10 02:46:54;;;;;;;;;;;18.80;71.60;;;;;;5017071;28;1196;-69
2024/02/10 02:49:23;;;;;;;;;;;18.80;71.80;;;;;;5019058;28;1602;-69
2024/02/10 02:51:51;;;;;;;;;;;18.80;71.30;;;;;;5016043;28;1284;-69
2024/02/10 02:54:18;;;;;;;;;;;18.80;70.30;;;;;;5017230;28;1265;-70
2024/02/10 02:56:44;;;;;;;;;;;18.80;69.80;;;;;;5019585;28;1977;-68
2024/02/10 02:59:12;;;;;;;;;;;18.70;70.50;;;;;;5016590;28;1292;-68
2024/02/10 03:01:40;;;;;;;;;;;18.70;69.80;;;;;;5020304;28;1426;-68
2024/02/10 03:04:06;;;;;;;;;;;18.60;69.80;;;;;;5021837;28;1640;-69
2024/02/10 03:06:31;;;;;;;;;;;18.60;69.80;;;;;;5023545;28;1485;-69
2024/02/10 03:08:58;;;;;;;;;;;18.60;69.70;;;;;;5019773;28;1464;-69
2024/02/10 03:11:26;;;;;;;;;;;18.60;69.70;;;;;;5021797;28;1635;-69
2024/02/10 03:13:52;;;;;;;;;;;18.50;69.60;;;;;;5020037;28;1618;-70
2024/02/10 03:16:20;;;;;;;;;;;18.50;69.60;;;;;;5030067;28;1379;-68
2024/02/10 03:18:46;;;;;;;;;;;18.50;69.60;;;;;;5020074;28;1906;-70
2024/02/10 03:21:12;;;;;;;;;;;18.50;69.60;;;;;;5020386;28;1280;-66
2024/02/10 03:23:38;;;;;;;;;;;18.50;69.60;;;;;;5020392;28;1562;-67
2024/02/10 03:26:03;;;;;;;;;;;18.50;69.50;;;;;;5022079;28;1034;-68
2024/02/10 03:28:29;;;;;;;;;;;18.50;69.60;;;;;;5021065;28;1499;-68
2024/02/10 03:30:54;;;;;;;;;;;18.40;69.50;;;;;;5024048;28;1502;-68
2024/02/10 03:33:20;;;;;;;;;;;18.40;69.50;;;;;;5030445;28;1477;-69
2024/02/10 03:35:45;;;;;;;;;;;18.40;69.40;;;;;;5004236;28;1524;-69
2024/02/10 03:38:11;;;;;;;;;;;18.40;69.50;;;;;;5022206;28;1959;-69
2024/02/10 03:40:36;;;;;;;;;;;18.40;69.40;;;;;;5020602;28;1333;-68
2024/02/10 03:43:02;;;;;;;;;;;18.40;69.40;;;;;;5022088;28;1481;-69
2024/02/10 03:45:30;;;;;;;;;;;18.40;69.40;;;;;;5021543;28;1334;-69
2024/02/10 03:48:05;;;;;;;;;;;18.40;69.40;;;;;;5022005;28;1612;-69
2024/02/10 03:50:31;;;;;;;;;;;18.40;70.10;;;;;;5021533;28;1264;-69
2024/02/10 03:52:57;;;;;;;;;;;18.30;69.30;;;;;;5020995;28;1618;-69
2024/02/10 03:55:26;;;;;;;;;;;18.30;70.10;;;;;;5029771;28;1313;-70
2024/02/10 03:57:53;;;;;;;;;;;18.30;69.30;;;;;;5020557;28;1926;-68
2024/02/10 04:00:20;;;;;;;;;;;18.30;69.30;;;;;;5022901;28;1909;-68
2024/02/10 04:02:46;;;;;;;;;;;18.30;69.30;;;;;;5019194;28;1319;-68
2024/02/10 04:05:12;;;;;;;;;;;18.30;69.30;;;;;;5023055;28;1534;-68
2024/02/10 04:07:37;;;;;;;;;;;18.30;69.30;;;;;;5021842;28;1260;-69
2024/02/10 04:10:04;;;;;;;;;;;18.30;69.20;;;;;;5024901;28;1373;-67
2024/02/10 04:12:30;;;;;;;;;;;18.30;69.20;;;;;;5023264;28;1370;-69
2024/02/10 04:14:58;;;;;;;;;;;18.30;69.20;;;;;;5023991;28;1519;-68
2024/02/10 04:17:24;;;;;;;;;;;18.30;69.20;;;;;;5022817;28;1922;-69
2024/02/10 04:19:53;;;;;;;;;;;18.30;69.20;;;;;;5021941;28;1351;-69
2024/02/10 04:22:22;;;;;;;;;;;18.20;69.10;;;;;;5021461;28;1523;-68
2024/02/10 04:24:48;;;;;;;;;;;18.20;69.20;;;;;;5022810;28;1494;-68
2024/02/10 04:27:15;;;;;;;;;;;18.20;69.20;;;;;;5017773;28;1254;-69
2024/02/10 04:29:40;;;;;;;;;;;18.20;69.10;;;;;;5022628;28;1478;-68
2024/02/10 04:32:07;;;;;;;;;;;18.20;69.10;;;;;;5021416;28;1288;-69
2024/02/10 04:34:33;;;;;;;;;;;18.20;69.10;;;;;;5022966;28;1565;-68
2024/02/10 04:36:58;;;;;;;;;;;18.20;69.10;;;;;;5029618;28;1902;-67
2024/02/10 04:39:24;;;;;;;;;;;18.20;69.10;;;;;;5019839;28;1608;-69
2024/02/10 04:41:50;;;;;;;;;;;18.20;69.10;;;;;;5021501;28;1305;-69
2024/02/10 04:44:15;;;;;;;;;;;18.20;69.10;;;;;;5018651;28;1031;-69
2024/02/10 04:46:42;;;;;;;;;;;18.20;69.10;;;;;;5021355;28;1223;-69
2024/02/10 04:49:08;;;;;;;;;;;18.20;69.10;;;;;;5024150;28;1359;-68
2024/02/10 04:51:35;;;;;;;;;;;18.20;69.10;;;;;;5028923;28;1220;-68
2024/02/10 04:54:04;;;;;;;;;;;18.20;69.10;;;;;;5021627;28;902;-70
2024/02/10 04:56:30;;;;;;;;;;;18.20;69.10;;;;;;5021860;28;1898;-67
2024/02/10 04:58:57;;;;;;;;;;;18.20;69.10;;;;;;5023175;28;1351;-68
2024/02/10 05:01:32;;;;;;;;;;;18.10;69.00;;;;;;5019346;28;1540;-67
2024/02/10 05:03:57;;;;;;;;;;;18.10;69.00;;;;;;5021169;28;923;-68
2024/02/10 05:06:23;;;;;;;;;;;18.20;69.10;;;;;;5020310;28;1545;-69
2024/02/10 05:08:48;;;;;;;;;;;18.10;69.00;;;;;;5019122;28;1364;-68
2024/02/10 05:11:14;;;;;;;;;;;18.10;69.00;;;;;;5018796;28;1548;-67
2024/02/10 05:13:39;;;;;;;;;;;18.20;69.00;;;;;;5021227;28;1476;-68
2024/02/10 05:16:05;;;;;;;;;;;18.20;68.90;;;;;;5019202;28;1469;-68
2024/02/10 05:18:31;;;;;;;;;;;18.20;68.80;;;;;;5020089;28;1963;-67
2024/02/10 05:20:59;;;;;;;;;;;18.20;68.70;;;;;;5020430;28;1524;-68
2024/02/10 05:23:25;;;;;;;;;;;18.20;68.60;;;;;;5020180;28;1465;-69
2024/02/10 05:25:50;;;;;;;;;;;18.20;68.50;;;;;;5018890;28;1347;-68
2024/02/10 05:28:15;;;;;;;;;;;18.30;68.30;;;;;;5018948;28;1268;-69
2024/02/10 05:30:41;;;;;;;;;;;18.30;68.20;;;;;;5022255;28;1658;-68
2024/02/10 05:33:07;;;;;;;;;;;18.40;68.10;;;;;;5015461;28;1300;-69
2024/02/10 05:35:32;;;;;;;;;;;18.40;68.00;;;;;;5019603;28;1407;-68
2024/02/10 05:37:58;;;;;;;;;;;18.40;67.80;;;;;;5020390;28;1898;-68
2024/02/10 05:40:24;;;;;;;;;;;18.40;67.70;;;;;;5017073;28;1256;-69
2024/02/10 05:42:50;;;;;;;;;;;18.40;67.60;;;;;;5021072;28;1613;-68
2024/02/10 05:45:17;;;;;;;;;;;18.50;67.60;;;;;;5019811;28;871;-69
2024/02/10 05:47:47;;;;;;;;;;;18.50;67.50;;;;;;5016261;28;1652;-69
2024/02/10 05:50:18;;;;;;;;;;;18.50;67.50;;;;;;5020614;28;2033;-68
2024/02/10 05:52:47;;;;;;;;;;;18.50;67.40;;;;;;5016239;28;1251;-66
2024/02/10 05:55:14;;;;;;;;;;;18.50;67.20;;;;;;5016067;28;1273;-67
2024/02/10 05:57:39;;;;;;;;;;;18.50;67.20;;;;;;5018878;28;1962;-65
2024/02/10 06:00:11;;;;;;;;;;;18.50;67.10;;;;;;5018655;28;1473;-68
2024/02/10 06:02:42;;;;;;;;;;;18.60;67.10;;;;;;4999574;28;1303;-68
2024/02/10 06:05:11;;;;;;;;;;;18.60;67.00;;;;;;5018030;28;1541;-68
2024/02/10 06:07:37;;;;;;;;;;;18.60;67.00;;;;;;5020287;28;1149;-68
2024/02/10 06:10:09;;;;;;;;;;;18.60;66.90;;;;;;5021444;28;1379;-68
2024/02/10 06:12:43;;;;;;;;;;;18.60;66.90;;;;;;5016938;28;1291;-68
2024/02/10 06:15:09;;;;;;;;;;;18.60;66.80;;;;;;5017475;28;1443;-68
2024/02/10 06:17:38;;;;;;;;;;;18.60;66.90;;;;;;5018721;28;1902;-68
2024/02/10 06:20:12;;;;;;;;;;;18.60;66.80;;;;;;5016263;28;1508;-68
2024/02/10 06:22:38;;;;;;;;;;;18.60;66.70;;;;;;5018295;28;1538;-69
2024/02/10 06:25:04;;;;;;;;;;;18.60;66.70;;;;;;5018408;28;1292;-68
2024/02/10 06:27:29;;;;;;;;;;;18.60;66.70;;;;;;5020296;28;1394;-69
2024/02/10 06:29:55;;;;;;;;;;;18.60;66.70;;;;;;5016954;28;1597;-69
2024/02/10 06:32:21;;;;;;;;;;;18.60;66.70;;;;;;5016885;28;1549;-69
2024/02/10 06:34:51;;;;;;;;;;;18.60;66.70;;;;;;5019917;28;1267;-69
2024/02/10 06:37:20;;;;;;;;;;;18.60;66.60;;;;;;5019773;28;1967;-70
2024/02/10 06:39:45;;;;;;;;;;;18.60;66.70;;;;;;5017512;28;1339;-69
2024/02/10 06:42:11;;;;;;;;;;;18.60;66.60;;;;;;5021693;28;1525;-69
2024/02/10 06:44:39;;;;;;;;;;;18.60;66.60;;;;;;5020506;28;1270;-68
2024/02/10 06:47:06;;;;;;;;;;;18.60;66.60;;;;;;5018987;28;1612;-69
2024/02/10 06:49:34;;;;;;;;;;;18.60;66.60;;;;;;5019062;28;1245;-69
2024/02/10 06:52:02;;;;;;;;;;;18.60;66.60;;;;;;5018720;28;1415;-69
2024/02/10 06:54:28;;;;;;;;;;;18.60;66.70;;;;;;5018415;28;1402;-69
2024/02/10 06:56:55;;;;;;;;;;;18.60;66.70;;;;;;5017339;28;1951;-68
2024/02/10 06:59:23;;;;;;;;;;;18.60;66.70;;;;;;5016284;28;1661;-68
2024/02/10 07:01:52;;;;;;;;;;;18.60;66.70;;;;;;5018852;28;1470;-67
2024/02/10 07:04:18;;;;;;;;;;;18.60;66.70;;;;;;5020934;28;1195;-67
2024/02/10 07:06:43;;;;;;;;;;;18.60;66.70;;;;;;5020915;28;1687;-67
2024/02/10 07:09:09;;;;;;;;;;;18.60;66.80;;;;;;5018130;28;1612;-66
2024/02/10 07:11:34;;;;;;;;;;;18.60;66.80;;;;;;5017442;28;1464;-66
2024/02/10 07:14:00;;;;;;;;;;;18.50;66.70;;;;;;5015916;28;935;-68
2024/02/10 07:16:25;;;;;;;;;;;18.50;66.70;;;;;;5019161;28;1478;-66
2024/02/10 07:18:50;;;;;;;;;;;18.50;66.70;;;;;;5018795;28;1984;-69
2024/02/10 07:21:16;;;;;;;;;;;18.50;66.70;;;;;;5016280;28;1237;-68
2024/02/10 07:23:43;;;;;;;;;;;18.50;66.70;;;;;;5016265;28;1457;-66
2024/02/10 07:26:08;;;;;;;;;;;18.50;66.80;;;;;;5019284;28;1257;-68
2024/02/10 07:28:34;;;;;;;;;;;18.50;67.50;;;;;;5018056;28;1228;-66
2024/02/10 07:31:02;;;;;;;;;;;18.50;66.80;;;;;;5019196;28;1262;-66
2024/02/10 07:33:31;;;;;;;;;;;18.50;66.80;;;;;;5018434;28;1578;-68
2024/02/10 07:36:02;;;;;;;;;;;18.50;66.80;;;;;;5017125;28;1512;-68
2024/02/10 07:38:27;;;;;;;;;;;18.50;66.80;;;;;;5016982;28;1961;-67
2024/02/10 07:40:54;;;;;;;;;;;18.50;66.80;;;;;;5018894;28;1393;-68
2024/02/10 07:43:19;;;;;;;;;;;18.50;66.90;;;;;;5016588;28;1306;-68
2024/02/10 07:45:45;;;;;;;;;;;18.50;66.90;;;;;;5022568;28;1610;-68
2024/02/10 07:48:10;;;;;;;;;;;18.50;66.90;;;;;;5020058;28;1359;-68
2024/02/10 07:50:38;;;;;;;;;;;18.50;66.90;;;;;;5019319;28;1577;-68
2024/02/10 07:53:05;;;;;;;;;;;18.40;66.90;;;;;;5021407;28;1204;-68
2024/02/10 07:55:35;;;;;;;;;;;18.50;66.90;;;;;;5024176;28;1267;-68
2024/02/10 07:58:03;;;;;;;;;;;18.40;66.90;;;;;;5020408;28;2133;-69
2024/02/10 08:00:30;;;;;;;;;;;18.40;66.90;;;;;;5023757;28;1222;-68
2024/02/10 08:02:56;;;;;;;;;;;18.40;66.90;;;;;;5020363;28;1317;-70
2024/02/10 08:05:21;;;;;;;;;;;18.40;66.90;;;;;;5020842;28;1810;-69
2024/02/10 08:07:46;;;;;;;;;;;18.40;66.90;;;;;;5020602;28;1527;-69
2024/02/10 08:10:13;;;;;;;;;;;18.40;66.90;;;;;;5023722;28;1133;-69
2024/02/10 08:12:40;;;;;;;;;;;18.40;66.90;;;;;;5022262;28;1449;-70
2024/02/10 08:15:07;;;;;;;;;;;18.40;66.90;;;;;;5020778;28;1410;-69
2024/02/10 08:17:33;;;;;;;;;;;18.40;67.70;;;;;;5019724;28;1914;-69
2024/02/10 08:19:58;;;;;;;;;;;18.40;67.00;;;;;;5020497;28;1288;-70
2024/02/10 08:22:24;;;;;;;;;;;18.40;67.00;;;;;;5021650;28;958;-70
2024/02/10 08:24:51;;;;;;;;;;;18.40;67.00;;;;;;5019135;28;948;-70
2024/02/10 08:27:18;;;;;;;;;;;18.40;67.00;;;;;;5021768;28;1211;-70
2024/02/10 08:29:45;;;;;;;;;;;18.40;67.00;;;;;;5018387;28;1690;-70
2024/02/10 08:32:11;;;;;;;;;;;18.40;67.00;;;;;;5013113;28;1267;-70
2024/02/10 08:34:38;;;;;;;;;;;18.40;67.00;;;;;;5022637;28;1442;-70
2024/02/10 08:37:04;;;;;;;;;;;18.40;66.90;;;;;;5020845;28;2011;-70
2024/02/10 08:39:30;;;;;;;;;;;18.40;66.90;;;;;;5021613;28;1503;-70
2024/02/10 08:41:57;;;;;;;;;;;18.40;66.90;;;;;;5021019;28;1216;-69
2024/02/10 08:44:24;;;;;;;;;;;18.40;66.80;;;;;;5021807;28;1472;-70
2024/02/10 08:46:50;;;;;;;;;;;18.40;66.80;;;;;;5023146;28;1258;-70
2024/02/10 08:49:17;;;;;;;;;;;18.40;66.70;;;;;;5021387;28;1532;-69
2024/02/10 08:51:42;;;;;;;;;;;18.40;66.70;;;;;;5021565;28;1568;-70
2024/02/10 08:54:11;;;;;;;;;;;18.40;66.70;;;;;;5021074;28;1254;-70
2024/02/10 08:56:41;;;;;;;;;;;18.40;66.70;;;;;;5028319;28;1373;-69
2024/02/10 08:59:09;;;;;;;;;;;18.40;66.60;;;;;;5020753;28;1630;-69
2024/02/10 09:01:37;;;;;;;;;;;18.40;66.60;;;;;;5021065;28;1448;-69
2024/02/10 09:04:03;;;;;;;;;;;18.50;66.60;;;;;;5017179;28;1466;-69
2024/02/10 09:06:28;;;;;;;;;;;18.40;66.50;;;;;;5020494;28;1212;-69
2024/02/10 09:08:54;;;;;;;;;;;18.50;66.60;;;;;;5019097;28;1507;-69
2024/02/10 09:11:19;;;;;;;;;;;18.50;66.60;;;;;;5021784;28;1323;-69
2024/02/10 09:13:45;;;;;;;;;;;18.50;66.60;;;;;;5021673;28;1633;-69
2024/02/10 09:16:12;;;;;;;;;;;18.50;66.50;;;;;;5020352;28;1232;-69
2024/02/10 09:18:37;;;;;;;;;;;18.50;66.50;;;;;;5020390;28;1926;-69
2024/02/10 09:21:02;;;;;;;;;;;18.50;66.50;;;;;;5019246;28;1458;-69
2024/02/10 09:23:29;;;;;;;;;;;18.50;66.50;;;;;;5018754;28;1254;-69
2024/02/10 09:25:55;;;;;;;;;;;18.50;66.50;;;;;;5019489;28;1444;-70
2024/02/10 09:28:22;;;;;;;;;;;18.50;67.20;;;;;;5020927;28;1549;-69
2024/02/10 09:30:47;;;;;;;;;;;18.50;66.40;;;;;;5019219;28;1433;-70
2024/02/10 09:33:22;;;;;;;;;;;18.50;66.40;;;;;;5020106;28;1194;-69
2024/02/10 09:35:50;;;;;;;;;;;18.50;66.40;;;;;;5019916;28;1498;-69
2024/02/10 09:38:16;;;;;;;;;;;18.50;66.40;;;;;;5018731;28;1965;-69
2024/02/10 09:40:44;;;;;;;;;;;18.50;66.50;;;;;;5018922;28;1571;-69
2024/02/10 09:43:10;;;;;;;;;;;18.50;66.40;;;;;;5019313;28;1716;-69
2024/02/10 09:45:36;;;;;;;;;;;18.50;66.40;;;;;;5020993;28;1501;-69
2024/02/10 09:48:03;;;;;;;;;;;18.50;66.30;;;;;;5020808;28;1361;-69
2024/02/10 09:50:31;;;;;;;;;;;18.50;66.30;;;;;;5017587;28;1842;-71
2024/02/10 09:52:57;;;;;;;;;;;18.50;66.30;;;;;;5034144;28;1296;-68
2024/02/10 09:55:23;;;;;;;;;;;18.50;66.30;;;;;;5020375;28;1682;-69
2024/02/10 09:57:49;;;;;;;;;;;18.50;66.30;;;;;;5021551;28;1882;-70
2024/02/10 10:00:16;;;;;;;;;;;18.50;66.30;;;;;;5021979;28;1037;-70
2024/02/10 10:02:46;;;;;;;;;;;18.50;66.30;;;;;;5019564;28;1100;-68
2024/02/10 10:05:11;;;;;;;;;;;18.50;66.30;;;;;;5017908;28;1360;-68
2024/02/10 10:07:37;;;;;;;;;;;18.50;66.30;;;;;;5030513;28;1369;-68
2024/02/10 10:10:02;;;;;;;;;;;18.50;66.30;;;;;;5019663;28;1229;-67
2024/02/10 10:12:28;;;;;;;;;;;18.50;66.30;;;;;;5018586;28;1115;-68
2024/02/10 10:14:53;;;;;;;;;;;18.50;66.30;;;;;;5024051;28;970;-68
2024/02/10 10:17:19;;;;;;;;;;;18.50;66.30;;;;;;5027250;28;1979;-68
2024/02/10 10:19:44;;;;;;;;;;;18.50;66.20;;;;;;5025158;28;1492;-68
2024/02/10 10:22:10;;;;;;;;;;;18.50;66.20;;;;;;5017524;28;1265;-68
2024/02/10 10:24:36;;;;;;;;;;;18.50;66.20;;;;;;5024807;28;1275;-68
2024/02/10 10:27:02;;;;;;;;;;;18.50;66.20;;;;;;5019475;28;1257;-68
2024/02/10 10:29:30;;;;;;;;;;;18.50;66.20;;;;;;5022583;28;1281;-69
2024/02/10 10:31:56;;;;;;;;;;;18.50;66.20;;;;;;5026626;28;1351;-68
2024/02/10 10:34:24;;;;;;;;;;;18.50;66.20;;;;;;5020482;28;1065;-69
2024/02/10 10:36:50;;;;;;;;;;;18.50;66.20;;;;;;5022630;28;1959;-69
2024/02/10 10:39:15;;;;;;;;;;;18.50;66.20;;;;;;5025506;28;1300;-68
2024/02/10 10:41:42;;;;;;;;;;;18.50;66.20;;;;;;5020617;28;999;-68
2024/02/10 10:44:09;;;;;;;;;;;18.50;66.20;;;;;;5023723;28;879;-69
2024/02/10 10:46:35;;;;;;;;;;;18.50;66.20;;;;;;5029541;28;1045;-68
2024/02/10 10:49:01;;;;;;;;;;;18.50;66.20;;;;;;5022731;28;1277;-68
2024/02/10 10:51:37;;;;;;;;;;;18.50;66.20;;;;;;5029091;28;895;-68
2024/02/10 10:54:03;;;;;;;;;;;18.50;66.20;;;;;;5026282;28;895;-69
2024/02/10 10:56:31;;;;;;;;;;;18.50;66.20;;;;;;5020245;28;1133;-68
2024/02/10 10:58:59;;;;;;;;;;;18.50;66.20;;;;;;5020187;28;2046;-67
2024/02/10 11:01:27;;;;;;;;;;;18.50;66.20;;;;;;5021288;28;1001;-69
2024/02/10 11:03:54;;;;;;;;;;;18.50;66.20;;;;;;5024522;28;1335;-68
2024/02/10 11:06:22;;;;;;;;;;;18.50;66.20;;;;;;5026009;28;860;-68
2024/02/10 11:08:54;;;;;;;;;;;18.50;66.20;;;;;;5019755;28;1607;-68
2024/02/10 11:11:19;;;;;;;;;;;18.50;66.20;;;;;;5015788;28;1262;-68
2024/02/10 11:13:45;;;;;;;;;;;18.50;66.10;;;;;;5023605;28;1026;-69
2024/02/10 11:16:14;;;;;;;;;;;18.50;66.10;;;;;;5021326;28;856;-68
2024/02/10 11:18:43;;;;;;;;;;;18.50;66.10;;;;;;5020615;28;1910;-68
2024/02/10 11:21:25;;;;;;;;;;;18.50;66.20;;;;;;5019926;28;939;-70
2024/02/10 11:23:56;;;;;;;;;;;18.50;66.10;;;;;;5023255;28;1343;-70
2024/02/10 11:26:24;;;;;;;;;;;18.50;66.10;;;;;;5021587;28;932;-68
2024/02/10 11:28:56;;;;;;;;;;;18.50;66.10;;;;;;5024563;28;1292;-68
2024/02/10 11:31:22;;;;;;;;;;;18.50;66.10;;;;;;5027425;28;1835;-68
2024/02/10 11:33:47;;;;;;;;;;;18.50;66.10;;;;;;5026058;28;1283;-69
2024/02/10 11:36:13;;;;;;;;;;;18.50;66.10;;;;;;5027052;28;1322;-67
2024/02/10 11:38:38;;;;;;;;;;;18.50;66.10;;;;;;5028981;28;1894;-68
2024/02/10 11:41:05;;;;;;;;;;;18.50;66.10;;;;;;5022180;28;963;-68
2024/02/10 11:43:30;;;;;;;;;;;18.50;66.10;;;;;;5029361;28;899;-68
2024/02/10 11:45:57;;;;;;;;;;;18.50;66.10;;;;;;5030623;28;1237;-68
2024/02/10 11:48:22;;;;;;;;;;;18.50;66.10;;;;;;5022549;28;1379;-68
2024/02/10 11:50:49;;;;;;;;;;;18.40;66.70;;;;;;5029467;28;1016;-68
2024/02/10 11:53:15;;;;;;;;;;;18.40;66.00;;;;;;5023381;28;1500;-68
2024/02/10 11:55:41;;;;;;;;;;;18.50;66.10;;;;;;5012110;28;1351;-67
2024/02/10 11:58:08;;;;;;;;;;;18.50;66.00;;;;;;5028870;28;1894;-68
2024/02/10 12:00:34;;;;;;;;;;;18.50;66.00;;;;;;5024481;28;1806;-72
2024/02/10 12:02:59;;;;;;;;;;;18.50;66.00;;;;;;5023658;28;900;-68
2024/02/10 12:05:28;;;;;;;;;;;18.50;66.00;;;;;;5059315;28;828;-68
2024/02/10 12:07:54;;;;;;;;;;;18.50;66.00;;;;;;5022533;28;1808;-69
2024/02/10 12:10:19;;;;;;;;;;;18.50;66.00;;;;;;5020078;28;1773;-68
2024/02/10 12:12:52;;;;;;;;;;;18.50;66.00;;;;;;5030456;28;1237;-68
2024/02/10 12:15:18;;;;;;;;;;;18.50;66.00;;;;;;5020532;28;1772;-68
2024/02/10 12:17:45;;;;;;;;;;;18.50;66.00;;;;;;5028275;28;1914;-67
2024/02/10 12:20:12;;;;;;;;;;;18.50;65.90;;;;;;5021594;28;1318;-68
2024/02/10 12:22:38;;;;;;;;;;;18.50;66.00;;;;;;5026642;28;1347;-69
2024/02/10 12:25:03;;;;;;;;;;;18.50;65.90;;;;;;5025404;28;1248;-68
2024/02/10 12:27:31;;;;;;;;;;;18.50;65.90;;;;;;5022121;28;1239;-68
2024/02/10 12:29:57;;;;;;;;;;;18.50;65.90;;;;;;5029790;28;1285;-68
2024/02/10 12:32:28;;;;;;;;;;;18.50;66.70;;;;;;5022889;28;808;-70
2024/02/10 12:34:54;;;;;;;;;;;18.50;65.90;;;;;;5026920;28;1017;-69
2024/02/10 12:37:20;;;;;;;;;;;18.50;65.80;;;;;;5027154;28;1902;-68
2024/02/10 12:39:45;;;;;;;;;;;18.50;65.90;;;;;;5025408;28;1430;-68
2024/02/10 12:42:11;;;;;;;;;;;18.50;65.90;;;;;;5023837;28;919;-69
2024/02/10 12:44:37;;;;;;;;;;;18.50;65.90;;;;;;5024649;28;1407;-67
2024/02/10 12:47:03;;;;;;;;;;;18.50;65.90;;;;;;5023365;28;1389;-68
2024/02/10 12:49:28;;;;;;;;;;;18.40;65.80;;;;;;5024444;28;1319;-68
2024/02/10 12:51:57;;;;;;;;;;;18.40;65.90;;;;;;5023208;28;1003;-68
2024/02/10 12:54:27;;;;;;;;;;;18.40;65.90;;;;;;5021018;28;997;-67
2024/02/10 12:56:53;;;;;;;;;;;18.40;65.90;;;;;;5023257;28;1915;-69
2024/02/10 12:59:19;;;;;;;;;;;18.40;66.00;;;;;;5025737;28;1265;-68
2024/02/10 13:01:45;;;;;;;;;;;18.40;66.00;;;;;;5026961;28;1645;-68
2024/02/10 13:04:10;;;;;;;;;;;18.40;66.10;;;;;;5022840;28;1029;-70
2024/02/10 13:06:35;;;;;;;;;;;18.40;66.10;;;;;;5019972;28;1101;-70
2024/02/10 13:09:01;;;;;;;;;;;18.40;66.10;;;;;;5021427;28;1288;-68
2024/02/10 13:11:27;;;;;;;;;;;18.40;66.10;;;;;;5026416;28;833;-69
2024/02/10 13:13:54;;;;;;;;;;;18.40;66.20;;;;;;5023636;28;1089;-68
2024/02/10 13:16:20;;;;;;;;;;;18.40;66.20;;;;;;5023258;28;799;-69
2024/02/10 13:18:45;;;;;;;;;;;18.40;66.20;;;;;;5026927;28;1981;-68
2024/02/10 13:21:16;;;;;;;;;;;18.40;66.20;;;;;;5022425;28;1231;-68
2024/02/10 13:23:43;;;;;;;;;;;18.30;66.20;;;;;;5026849;28;1247;-69
2024/02/10 13:26:12;;;;;;;;;;;18.30;66.20;;;;;;5019203;28;1303;-69
2024/02/10 13:28:40;;;;;;;;;;;18.30;66.20;;;;;;5021005;28;1284;-69
2024/02/10 13:31:08;;;;;;;;;;;18.30;66.20;;;;;;5020760;28;1744;-69
2024/02/10 13:33:33;;;;;;;;;;;18.30;66.20;;;;;;5020206;28;1641;-69
2024/02/10 13:35:59;;;;;;;;;;;18.30;66.20;;;;;;5020775;28;1728;-69
2024/02/10 14:00:29;;;;;;;;;;;18.40;66.20;;;;;;5018372;28;1447;-69
2024/02/10 14:03:00;;;;;;;;;;;18.40;66.20;;;;;;5017709;28;1512;-69
2024/02/10 14:10:46;;;;;;;;;;;18.40;66.10;;;;;;5020442;28;896;-70
2024/02/10 14:13:17;;;;;;;;;;;18.40;66.10;;;;;;5017817;28;1871;-69
2024/02/10 14:15:53;;;;;;;;;;;18.40;66.10;;;;;;5025159;28;1453;-71
2024/02/10 14:18:33;;;;;;;;;;;18.40;66.10;;;;;;5019416;28;1896;-71
2024/02/10 14:21:00;;;;;;;;;;;18.40;66.10;;;;;;5019872;28;867;-70
2024/02/10 14:23:28;;;;;;;;;;;18.40;65.80;;;;;;5016933;28;1600;-70
2024/02/10 14:25:56;;;;;;;;;;;18.40;65.10;;;;;;5026815;28;1935;-69
2024/02/10 14:28:38;;;;;;;;;;;18.40;64.10;;;;;;5018710;28;1264;-69
2024/02/10 14:31:05;;;;;;;;;;;18.40;63.60;;;;;;5017253;28;907;-70
2024/02/10 14:33:33;;;;;;;;;;;18.40;63.40;;;;;;5021810;28;1459;-70
2024/02/10 14:36:06;;;;;;;;;;;18.30;63.00;;;;;;5019463;28;1597;-70
2024/02/10 14:38:31;;;;;;;;;;;18.30;63.10;;;;;;5017895;28;1977;-71
2024/02/10 14:41:02;;;;;;;;;;;18.40;62.70;;;;;;5016041;28;2138;-70
2024/02/10 14:43:35;;;;;;;;;;;18.30;62.70;;;;;;5019293;28;1473;-71
2024/02/10 14:46:11;;;;;;;;;;;18.30;62.40;;;;;;5019873;28;1679;-71
2024/02/10 14:48:37;;;;;;;;;;;18.30;62.70;;;;;;5023350;28;1442;-71
2024/02/10 14:51:06;;;;;;;;;;;18.30;63.10;;;;;;5018037;28;1235;-69
2024/02/10 14:53:34;;;;;;;;;;;18.30;63.20;;;;;;5017219;28;1564;-69
2024/02/10 14:56:09;;;;;;;;;;;18.30;63.40;;;;;;5018836;28;1274;-69